sensor_id;sensor_type;location;lat;lon;timestamp;P1;durP1;ratioP1;P2;durP2;ratioP2
18042;SDS011;9146;48.074;11.968;2022-09-02T00:01:25;7.10;;;6.40;;
18042;SDS011;9146;48.074;11.968;2022-09-02T00:03:54;10.23;;;8.00;;
18042;SDS011;9146;48.074;11.968;2022-09-02T00:06:23;6.70;;;6.13;;
18042;SDS011;9146;48.074;11.968;2022-09-02T00:08:50;8.90;;;8.00;;
18042;SDS011;9146;48.074;11.968;2022-09-02T00:11:20;8.93;;;7.80;;
18042;SDS011;9146;48.074;11.968;2022-09-02T00:13:48;9.30;;;7.07;;
18042;SDS011;9146;48.074;11.968;2022-09-02T00:16:15;9.50;;;7.80;;
18042;SDS011;9146;48.074;11.968;2022-09-02T00:18:42;8.53;;;7.70;;
18042;SDS011;9146;48.074;11.968;2022-09-02T00:21:09;8.70;;;7.90;;
18042;SDS011;9146;48.074;11.968;2022-09-02T00:23:37;6.73;;;6.10;;
18042;SDS011;9146;48.074;11.968;2022-09-02T00:26:05;7.00;;;6.40;;
18042;SDS011;9146;48.074;11.968;2022-09-02T00:28:33;6.30;;;5.70;;
18042;SDS011;9146;48.074;11.968;2022-09-02T00:31:00;6.57;;;5.97;;
18042;SDS011;9146;48.074;11.968;2022-09-02T00:33:27;6.57;;;5.97;;
18042;SDS011;9146;48.074;11.968;2022-09-02T00:35:57;6.27;;;5.77;;
18042;SDS011;9146;48.074;11.968;2022-09-02T00:38:24;8.00;;;7.40;;
18042;SDS011;9146;48.074;11.968;2022-09-02T00:40:51;6.10;;;5.60;;
18042;SDS011;9146;48.074;11.968;2022-09-02T00:43:23;8.27;;;6.30;;
18042;SDS011;9146;48.074;11.968;2022-09-02T00:45:53;7.37;;;6.67;;
18042;SDS011;9146;48.074;11.968;2022-09-02T00:48:20;9.83;;;7.23;;
18042;SDS011;9146;48.074;11.968;2022-09-02T00:50:47;9.37;;;8.47;;
18042;SDS011;9146;48.074;11.968;2022-09-02T00:53:15;9.23;;;8.33;;
18042;SDS011;9146;48.074;11.968;2022-09-02T00:55:43;8.87;;;7.90;;
18042;SDS011;9146;48.074;11.968;2022-09-02T00:58:15;8.50;;;7.60;;
18042;SDS011;9146;48.074;11.968;2022-09-02T01:00:45;9.10;;;8.30;;
18042;SDS011;9146;48.074;11.968;2022-09-02T01:03:15;8.27;;;7.47;;
18042;SDS011;9146;48.074;11.968;2022-09-02T01:05:46;9.97;;;8.43;;
18042;SDS011;9146;48.074;11.968;2022-09-02T01:08:15;9.43;;;8.57;;
18042;SDS011;9146;48.074;11.968;2022-09-02T01:10:44;9.30;;;8.40;;
18042;SDS011;9146;48.074;11.968;2022-09-02T01:13:13;8.83;;;7.97;;
18042;SDS011;9146;48.074;11.968;2022-09-02T01:15:42;9.33;;;8.53;;
18042;SDS011;9146;48.074;11.968;2022-09-02T01:18:13;8.97;;;8.17;;
18042;SDS011;9146;48.074;11.968;2022-09-02T01:20:53;12.17;;;10.20;;
18042;SDS011;9146;48.074;11.968;2022-09-02T01:23:21;11.67;;;10.00;;
18042;SDS011;9146;48.074;11.968;2022-09-02T01:25:48;11.07;;;9.93;;
18042;SDS011;9146;48.074;11.968;2022-09-02T01:28:16;11.13;;;9.10;;
18042;SDS011;9146;48.074;11.968;2022-09-02T01:30:45;15.40;;;10.20;;
18042;SDS011;9146;48.074;11.968;2022-09-02T01:33:14;8.80;;;7.90;;
18042;SDS011;9146;48.074;11.968;2022-09-02T01:35:42;12.20;;;10.07;;
18042;SDS011;9146;48.074;11.968;2022-09-02T01:38:09;11.87;;;10.77;;
18042;SDS011;9146;48.074;11.968;2022-09-02T01:40:38;10.23;;;8.80;;
18042;SDS011;9146;48.074;11.968;2022-09-02T01:43:07;10.40;;;9.27;;
18042;SDS011;9146;48.074;11.968;2022-09-02T01:45:35;10.40;;;9.30;;
18042;SDS011;9146;48.074;11.968;2022-09-02T01:48:04;12.90;;;11.60;;
18042;SDS011;9146;48.074;11.968;2022-09-02T01:50:32;9.83;;;8.90;;
18042;SDS011;9146;48.074;11.968;2022-09-02T01:52:59;10.60;;;9.50;;
18042;SDS011;9146;48.074;11.968;2022-09-02T01:55:27;11.40;;;10.30;;
18042;SDS011;9146;48.074;11.968;2022-09-02T01:57:56;12.00;;;10.90;;
18042;SDS011;9146;48.074;11.968;2022-09-02T02:00:23;12.90;;;11.03;;
18042;SDS011;9146;48.074;11.968;2022-09-02T02:02:50;13.43;;;11.10;;
18042;SDS011;9146;48.074;11.968;2022-09-02T02:05:17;11.47;;;10.40;;
18042;SDS011;9146;48.074;11.968;2022-09-02T02:07:44;12.07;;;10.73;;
18042;SDS011;9146;48.074;11.968;2022-09-02T02:10:12;17.23;;;10.60;;
18042;SDS011;9146;48.074;11.968;2022-09-02T02:12:41;15.00;;;10.93;;
18042;SDS011;9146;48.074;11.968;2022-09-02T02:15:11;13.30;;;11.20;;
18042;SDS011;9146;48.074;11.968;2022-09-02T02:17:39;12.67;;;11.03;;
18042;SDS011;9146;48.074;11.968;2022-09-02T02:20:08;11.77;;;10.67;;
18042;SDS011;9146;48.074;11.968;2022-09-02T02:22:36;13.83;;;11.43;;
18042;SDS011;9146;48.074;11.968;2022-09-02T02:25:03;12.33;;;11.03;;
18042;SDS011;9146;48.074;11.968;2022-09-02T02:27:31;11.97;;;10.77;;
18042;SDS011;9146;48.074;11.968;2022-09-02T02:29:58;13.80;;;12.40;;
18042;SDS011;9146;48.074;11.968;2022-09-02T02:32:26;13.40;;;11.93;;
18042;SDS011;9146;48.074;11.968;2022-09-02T02:34:55;16.73;;;13.23;;
18042;SDS011;9146;48.074;11.968;2022-09-02T02:37:21;13.30;;;12.00;;
18042;SDS011;9146;48.074;11.968;2022-09-02T02:39:48;14.90;;;13.30;;
18042;SDS011;9146;48.074;11.968;2022-09-02T02:42:15;13.50;;;11.80;;
18042;SDS011;9146;48.074;11.968;2022-09-02T02:44:42;12.77;;;11.47;;
18042;SDS011;9146;48.074;11.968;2022-09-02T02:47:09;14.10;;;12.60;;
18042;SDS011;9146;48.074;11.968;2022-09-02T02:49:38;14.60;;;13.13;;
18042;SDS011;9146;48.074;11.968;2022-09-02T02:52:07;15.20;;;12.70;;
18042;SDS011;9146;48.074;11.968;2022-09-02T02:54:35;15.60;;;13.20;;
18042;SDS011;9146;48.074;11.968;2022-09-02T02:57:03;15.33;;;12.93;;
18042;SDS011;9146;48.074;11.968;2022-09-02T02:59:31;14.53;;;13.00;;
18042;SDS011;9146;48.074;11.968;2022-09-02T03:01:58;17.40;;;14.07;;
18042;SDS011;9146;48.074;11.968;2022-09-02T03:04:25;14.23;;;12.60;;
18042;SDS011;9146;48.074;11.968;2022-09-02T03:06:53;18.53;;;13.50;;
18042;SDS011;9146;48.074;11.968;2022-09-02T03:09:20;15.27;;;13.27;;
18042;SDS011;9146;48.074;11.968;2022-09-02T03:11:47;13.80;;;12.40;;
18042;SDS011;9146;48.074;11.968;2022-09-02T03:14:14;14.67;;;11.40;;
18042;SDS011;9146;48.074;11.968;2022-09-02T03:16:43;15.33;;;13.77;;
18042;SDS011;9146;48.074;11.968;2022-09-02T03:19:10;14.60;;;13.10;;
18042;SDS011;9146;48.074;11.968;2022-09-02T03:21:38;16.30;;;13.07;;
18042;SDS011;9146;48.074;11.968;2022-09-02T03:24:07;15.13;;;13.10;;
18042;SDS011;9146;48.074;11.968;2022-09-02T03:26:35;13.77;;;12.07;;
18042;SDS011;9146;48.074;11.968;2022-09-02T03:29:02;14.33;;;12.70;;
18042;SDS011;9146;48.074;11.968;2022-09-02T03:31:30;14.90;;;13.40;;
18042;SDS011;9146;48.074;11.968;2022-09-02T03:33:57;18.03;;;13.47;;
18042;SDS011;9146;48.074;11.968;2022-09-02T03:36:25;18.20;;;15.20;;
18042;SDS011;9146;48.074;11.968;2022-09-02T03:38:53;16.17;;;14.67;;
18042;SDS011;9146;48.074;11.968;2022-09-02T03:41:22;16.30;;;13.97;;
18042;SDS011;9146;48.074;11.968;2022-09-02T03:43:49;18.80;;;14.47;;
18042;SDS011;9146;48.074;11.968;2022-09-02T03:46:16;15.00;;;13.50;;
18042;SDS011;9146;48.074;11.968;2022-09-02T03:48:43;15.57;;;12.93;;
18042;SDS011;9146;48.074;11.968;2022-09-02T03:51:10;13.73;;;12.30;;
18042;SDS011;9146;48.074;11.968;2022-09-02T03:53:38;13.77;;;12.33;;
18042;SDS011;9146;48.074;11.968;2022-09-02T03:56:05;15.90;;;12.57;;
18042;SDS011;9146;48.074;11.968;2022-09-02T03:58:34;15.23;;;11.63;;
18042;SDS011;9146;48.074;11.968;2022-09-02T04:01:02;16.27;;;12.83;;
18042;SDS011;9146;48.074;11.968;2022-09-02T04:03:29;16.40;;;13.20;;
18042;SDS011;9146;48.074;11.968;2022-09-02T04:05:56;14.90;;;13.40;;
18042;SDS011;9146;48.074;11.968;2022-09-02T04:08:24;15.13;;;13.50;;
18042;SDS011;9146;48.074;11.968;2022-09-02T04:10:51;17.90;;;12.53;;
18042;SDS011;9146;48.074;11.968;2022-09-02T04:13:20;22.33;;;12.90;;
18042;SDS011;9146;48.074;11.968;2022-09-02T04:15:48;14.10;;;12.20;;
18042;SDS011;9146;48.074;11.968;2022-09-02T04:21:38;17.17;;;14.53;;
18042;SDS011;9146;48.074;11.968;2022-09-02T04:24:07;17.90;;;14.53;;
18042;SDS011;9146;48.074;11.968;2022-09-02T04:26:35;15.90;;;13.67;;
18042;SDS011;9146;48.074;11.968;2022-09-02T04:29:03;16.87;;;14.50;;
18042;SDS011;9146;48.074;11.968;2022-09-02T04:31:33;16.73;;;14.93;;
18042;SDS011;9146;48.074;11.968;2022-09-02T04:34:01;16.80;;;14.90;;
18042;SDS011;9146;48.074;11.968;2022-09-02T04:36:28;21.20;;;16.10;;
18042;SDS011;9146;48.074;11.968;2022-09-02T04:38:56;19.60;;;14.00;;
18042;SDS011;9146;48.074;11.968;2022-09-02T04:41:24;18.80;;;15.10;;
18042;SDS011;9146;48.074;11.968;2022-09-02T04:43:53;22.67;;;17.37;;
18042;SDS011;9146;48.074;11.968;2022-09-02T04:46:21;19.67;;;15.50;;
18042;SDS011;9146;48.074;11.968;2022-09-02T04:48:50;22.17;;;17.17;;
18042;SDS011;9146;48.074;11.968;2022-09-02T04:51:18;25.73;;;18.10;;
18042;SDS011;9146;48.074;11.968;2022-09-02T04:53:47;23.00;;;18.40;;
18042;SDS011;9146;48.074;11.968;2022-09-02T04:56:16;21.13;;;17.10;;
18042;SDS011;9146;48.074;11.968;2022-09-02T04:58:44;20.07;;;16.73;;
18042;SDS011;9146;48.074;11.968;2022-09-02T05:01:12;18.77;;;15.97;;
18042;SDS011;9146;48.074;11.968;2022-09-02T05:03:42;19.80;;;15.27;;
18042;SDS011;9146;48.074;11.968;2022-09-02T05:06:12;21.03;;;17.70;;
18042;SDS011;9146;48.074;11.968;2022-09-02T05:08:41;23.20;;;18.43;;
18042;SDS011;9146;48.074;11.968;2022-09-02T05:11:09;19.73;;;15.10;;
18042;SDS011;9146;48.074;11.968;2022-09-02T05:13:38;18.23;;;16.33;;
18042;SDS011;9146;48.074;11.968;2022-09-02T05:16:05;18.80;;;16.40;;
18042;SDS011;9146;48.074;11.968;2022-09-02T05:18:32;19.47;;;17.40;;
18042;SDS011;9146;48.074;11.968;2022-09-02T05:21:03;17.87;;;15.33;;
18042;SDS011;9146;48.074;11.968;2022-09-02T05:23:32;20.80;;;18.00;;
18042;SDS011;9146;48.074;11.968;2022-09-02T05:26:01;18.60;;;16.57;;
18042;SDS011;9146;48.074;11.968;2022-09-02T05:28:28;19.53;;;16.80;;
18042;SDS011;9146;48.074;11.968;2022-09-02T05:30:57;17.40;;;15.60;;
18042;SDS011;9146;48.074;11.968;2022-09-02T05:33:31;18.33;;;15.87;;
18042;SDS011;9146;48.074;11.968;2022-09-02T05:36:01;18.87;;;16.80;;
18042;SDS011;9146;48.074;11.968;2022-09-02T05:38:29;17.57;;;15.73;;
18042;SDS011;9146;48.074;11.968;2022-09-02T05:40:58;17.83;;;16.00;;
18042;SDS011;9146;48.074;11.968;2022-09-02T05:43:33;19.03;;;15.50;;
18042;SDS011;9146;48.074;11.968;2022-09-02T05:46:02;17.00;;;15.30;;
18042;SDS011;9146;48.074;11.968;2022-09-02T05:48:39;16.70;;;15.10;;
18042;SDS011;9146;48.074;11.968;2022-09-02T05:51:23;18.30;;;15.63;;
18042;SDS011;9146;48.074;11.968;2022-09-02T05:53:51;17.73;;;15.83;;
18042;SDS011;9146;48.074;11.968;2022-09-02T05:56:23;16.37;;;14.67;;
18042;SDS011;9146;48.074;11.968;2022-09-02T05:58:53;15.10;;;13.33;;
18042;SDS011;9146;48.074;11.968;2022-09-02T06:01:21;14.47;;;12.30;;
18042;SDS011;9146;48.074;11.968;2022-09-02T06:03:48;15.00;;;13.53;;
18042;SDS011;9146;48.074;11.968;2022-09-02T06:06:16;17.23;;;13.60;;
18042;SDS011;9146;48.074;11.968;2022-09-02T06:08:44;13.70;;;12.27;;
18042;SDS011;9146;48.074;11.968;2022-09-02T06:11:12;12.87;;;11.57;;
18042;SDS011;9146;48.074;11.968;2022-09-02T06:13:41;12.97;;;11.60;;
18042;SDS011;9146;48.074;11.968;2022-09-02T06:16:14;11.90;;;10.43;;
18042;SDS011;9146;48.074;11.968;2022-09-02T06:18:43;11.77;;;10.53;;
18042;SDS011;9146;48.074;11.968;2022-09-02T06:21:10;11.83;;;10.63;;
18042;SDS011;9146;48.074;11.968;2022-09-02T06:23:38;10.20;;;9.20;;
18042;SDS011;9146;48.074;11.968;2022-09-02T06:26:06;17.20;;;8.83;;
18042;SDS011;9146;48.074;11.968;2022-09-02T06:28:34;10.30;;;9.40;;
18042;SDS011;9146;48.074;11.968;2022-09-02T06:31:06;10.20;;;9.00;;
18042;SDS011;9146;48.074;11.968;2022-09-02T06:33:34;10.80;;;9.70;;
18042;SDS011;9146;48.074;11.968;2022-09-02T06:36:04;8.40;;;7.70;;
18042;SDS011;9146;48.074;11.968;2022-09-02T06:38:35;9.07;;;8.17;;
18042;SDS011;9146;48.074;11.968;2022-09-02T06:41:02;7.70;;;7.10;;
18042;SDS011;9146;48.074;11.968;2022-09-02T06:43:30;9.03;;;8.00;;
18042;SDS011;9146;48.074;11.968;2022-09-02T06:46:01;8.33;;;7.50;;
18042;SDS011;9146;48.074;11.968;2022-09-02T06:48:32;7.50;;;6.80;;
18042;SDS011;9146;48.074;11.968;2022-09-02T06:51:03;8.27;;;7.43;;
18042;SDS011;9146;48.074;11.968;2022-09-02T06:53:38;8.10;;;7.30;;
18042;SDS011;9146;48.074;11.968;2022-09-02T06:56:06;7.93;;;7.10;;
18042;SDS011;9146;48.074;11.968;2022-09-02T06:58:39;8.97;;;7.23;;
18042;SDS011;9146;48.074;11.968;2022-09-02T07:01:06;7.40;;;6.90;;
18042;SDS011;9146;48.074;11.968;2022-09-02T07:03:34;6.83;;;6.23;;
18042;SDS011;9146;48.074;11.968;2022-09-02T07:06:19;6.63;;;5.90;;
18042;SDS011;9146;48.074;11.968;2022-09-02T07:08:46;5.90;;;5.43;;
18042;SDS011;9146;48.074;11.968;2022-09-02T07:11:15;7.70;;;6.43;;
18042;SDS011;9146;48.074;11.968;2022-09-02T07:13:45;6.90;;;6.30;;
18042;SDS011;9146;48.074;11.968;2022-09-02T07:16:12;5.77;;;5.27;;
18042;SDS011;9146;48.074;11.968;2022-09-02T07:18:41;11.23;;;6.03;;
18042;SDS011;9146;48.074;11.968;2022-09-02T07:21:08;5.97;;;5.37;;
18042;SDS011;9146;48.074;11.968;2022-09-02T07:23:36;5.17;;;4.77;;
18042;SDS011;9146;48.074;11.968;2022-09-02T07:26:03;6.50;;;4.83;;
18042;SDS011;9146;48.074;11.968;2022-09-02T07:28:36;5.23;;;4.83;;
18042;SDS011;9146;48.074;11.968;2022-09-02T07:31:05;6.67;;;5.93;;
18042;SDS011;9146;48.074;11.968;2022-09-02T07:33:33;5.90;;;5.37;;
18042;SDS011;9146;48.074;11.968;2022-09-02T07:36:02;4.70;;;4.40;;
18042;SDS011;9146;48.074;11.968;2022-09-02T07:38:30;4.93;;;4.53;;
18042;SDS011;9146;48.074;11.968;2022-09-02T07:40:57;4.93;;;4.53;;
18042;SDS011;9146;48.074;11.968;2022-09-02T07:43:25;5.33;;;4.93;;
18042;SDS011;9146;48.074;11.968;2022-09-02T07:45:53;6.23;;;4.50;;
18042;SDS011;9146;48.074;11.968;2022-09-02T07:48:20;9.10;;;4.00;;
18042;SDS011;9146;48.074;11.968;2022-09-02T07:50:48;9.23;;;4.00;;
18042;SDS011;9146;48.074;11.968;2022-09-02T07:53:16;4.70;;;4.40;;
18042;SDS011;9146;48.074;11.968;2022-09-02T07:55:44;5.30;;;4.40;;
18042;SDS011;9146;48.074;11.968;2022-09-02T07:58:12;5.10;;;4.60;;
18042;SDS011;9146;48.074;11.968;2022-09-02T08:00:40;3.80;;;3.50;;
18042;SDS011;9146;48.074;11.968;2022-09-02T08:03:08;3.80;;;3.60;;
18042;SDS011;9146;48.074;11.968;2022-09-02T08:05:36;4.73;;;4.10;;
18042;SDS011;9146;48.074;11.968;2022-09-02T08:08:06;4.40;;;4.10;;
18042;SDS011;9146;48.074;11.968;2022-09-02T08:10:35;2.90;;;2.70;;
18042;SDS011;9146;48.074;11.968;2022-09-02T08:13:03;6.53;;;3.43;;
18042;SDS011;9146;48.074;11.968;2022-09-02T08:15:31;4.13;;;3.43;;
18042;SDS011;9146;48.074;11.968;2022-09-02T08:18:00;3.70;;;2.83;;
18042;SDS011;9146;48.074;11.968;2022-09-02T08:20:28;4.43;;;2.93;;
18042;SDS011;9146;48.074;11.968;2022-09-02T08:22:55;3.67;;;3.37;;
18042;SDS011;9146;48.074;11.968;2022-09-02T08:25:22;2.90;;;2.70;;
18042;SDS011;9146;48.074;11.968;2022-09-02T08:27:51;5.13;;;3.07;;
18042;SDS011;9146;48.074;11.968;2022-09-02T08:30:19;2.97;;;2.77;;
18042;SDS011;9146;48.074;11.968;2022-09-02T08:32:46;3.07;;;2.37;;
18042;SDS011;9146;48.074;11.968;2022-09-02T08:35:13;6.57;;;2.70;;
18042;SDS011;9146;48.074;11.968;2022-09-02T08:37:40;3.03;;;2.80;;
18042;SDS011;9146;48.074;11.968;2022-09-02T08:40:07;3.47;;;3.17;;
18042;SDS011;9146;48.074;11.968;2022-09-02T08:42:42;3.50;;;2.67;;
18042;SDS011;9146;48.074;11.968;2022-09-02T08:45:13;3.47;;;3.17;;
18042;SDS011;9146;48.074;11.968;2022-09-02T08:47:46;2.93;;;2.70;;
18042;SDS011;9146;48.074;11.968;2022-09-02T08:50:18;4.80;;;3.10;;
18042;SDS011;9146;48.074;11.968;2022-09-02T08:52:47;3.23;;;2.93;;
18042;SDS011;9146;48.074;11.968;2022-09-02T08:55:25;2.70;;;2.50;;
18042;SDS011;9146;48.074;11.968;2022-09-02T08:57:58;2.50;;;2.30;;
18042;SDS011;9146;48.074;11.968;2022-09-02T09:00:28;2.40;;;2.20;;
18042;SDS011;9146;48.074;11.968;2022-09-02T09:03:03;2.50;;;2.30;;
18042;SDS011;9146;48.074;11.968;2022-09-02T09:05:43;2.97;;;2.10;;
18042;SDS011;9146;48.074;11.968;2022-09-02T09:08:18;2.20;;;2.10;;
18042;SDS011;9146;48.074;11.968;2022-09-02T09:10:55;3.80;;;2.07;;
18042;SDS011;9146;48.074;11.968;2022-09-02T09:16:22;2.23;;;2.07;;
18042;SDS011;9146;48.074;11.968;2022-09-02T09:18:56;2.47;;;2.27;;
18042;SDS011;9146;48.074;11.968;2022-09-02T09:21:29;2.70;;;2.20;;
18042;SDS011;9146;48.074;11.968;2022-09-02T09:23:57;2.00;;;1.73;;
18042;SDS011;9146;48.074;11.968;2022-09-02T09:26:27;2.33;;;2.13;;
18042;SDS011;9146;48.074;11.968;2022-09-02T09:28:57;5.13;;;2.17;;
18042;SDS011;9146;48.074;11.968;2022-09-02T09:31:30;2.13;;;1.87;;
18042;SDS011;9146;48.074;11.968;2022-09-02T09:34:00;2.73;;;1.80;;
18042;SDS011;9146;48.074;11.968;2022-09-02T09:36:45;2.13;;;1.93;;
18042;SDS011;9146;48.074;11.968;2022-09-02T09:39:22;2.00;;;1.90;;
18042;SDS011;9146;48.074;11.968;2022-09-02T09:41:51;2.40;;;2.23;;
18042;SDS011;9146;48.074;11.968;2022-09-02T09:44:41;1.57;;;1.50;;
18042;SDS011;9146;48.074;11.968;2022-09-02T09:47:12;2.10;;;1.77;;
18042;SDS011;9146;48.074;11.968;2022-09-02T09:49:43;1.80;;;1.70;;
18042;SDS011;9146;48.074;11.968;2022-09-02T09:52:11;2.90;;;1.67;;
18042;SDS011;9146;48.074;11.968;2022-09-02T09:54:49;1.50;;;1.43;;
18042;SDS011;9146;48.074;11.968;2022-09-02T09:57:33;1.90;;;1.70;;
18042;SDS011;9146;48.074;11.968;2022-09-02T10:00:00;2.20;;;1.87;;
18042;SDS011;9146;48.074;11.968;2022-09-02T10:02:44;1.57;;;1.47;;
18042;SDS011;9146;48.074;11.968;2022-09-02T10:05:16;2.00;;;1.70;;
18042;SDS011;9146;48.074;11.968;2022-09-02T10:07:53;3.17;;;2.00;;
18042;SDS011;9146;48.074;11.968;2022-09-02T10:10:23;1.60;;;1.47;;
18042;SDS011;9146;48.074;11.968;2022-09-02T10:12:52;1.87;;;1.77;;
18042;SDS011;9146;48.074;11.968;2022-09-02T10:15:23;1.93;;;1.70;;
18042;SDS011;9146;48.074;11.968;2022-09-02T10:18:06;1.53;;;1.40;;
18042;SDS011;9146;48.074;11.968;2022-09-02T10:20:43;2.03;;;1.60;;
18042;SDS011;9146;48.074;11.968;2022-09-02T10:23:20;1.77;;;1.67;;
18042;SDS011;9146;48.074;11.968;2022-09-02T10:26:02;1.77;;;1.67;;
18042;SDS011;9146;48.074;11.968;2022-09-02T10:28:42;2.43;;;1.80;;
18042;SDS011;9146;48.074;11.968;2022-09-02T10:31:34;1.80;;;1.70;;
18042;SDS011;9146;48.074;11.968;2022-09-02T10:34:12;1.70;;;1.60;;
18042;SDS011;9146;48.074;11.968;2022-09-02T10:36:55;5.27;;;2.13;;
18042;SDS011;9146;48.074;11.968;2022-09-02T10:39:38;3.37;;;1.60;;
18042;SDS011;9146;48.074;11.968;2022-09-02T10:42:18;3.03;;;1.80;;
18042;SDS011;9146;48.074;11.968;2022-09-02T10:44:58;1.83;;;1.70;;
18042;SDS011;9146;48.074;11.968;2022-09-02T10:47:34;1.83;;;1.40;;
18042;SDS011;9146;48.074;11.968;2022-09-02T10:50:06;2.53;;;1.60;;
18042;SDS011;9146;48.074;11.968;2022-09-02T10:55:48;1.80;;;1.70;;
18042;SDS011;9146;48.074;11.968;2022-09-02T10:58:23;3.37;;;1.70;;
18042;SDS011;9146;48.074;11.968;2022-09-02T11:01:02;2.87;;;1.60;;
18042;SDS011;9146;48.074;11.968;2022-09-02T11:03:31;1.50;;;1.40;;
18042;SDS011;9146;48.074;11.968;2022-09-02T11:06:06;2.13;;;1.70;;
18042;SDS011;9146;48.074;11.968;2022-09-02T11:08:38;1.70;;;1.60;;
18042;SDS011;9146;48.074;11.968;2022-09-02T11:11:11;1.70;;;1.60;;
18042;SDS011;9146;48.074;11.968;2022-09-02T11:13:49;2.00;;;1.37;;
18042;SDS011;9146;48.074;11.968;2022-09-02T11:16:24;1.97;;;1.60;;
18042;SDS011;9146;48.074;11.968;2022-09-02T11:18:55;1.57;;;1.47;;
18042;SDS011;9146;48.074;11.968;2022-09-02T11:21:36;1.63;;;1.53;;
18042;SDS011;9146;48.074;11.968;2022-09-02T11:24:13;2.00;;;1.80;;
18042;SDS011;9146;48.074;11.968;2022-09-02T11:26:50;3.40;;;1.70;;
18042;SDS011;9146;48.074;11.968;2022-09-02T11:29:24;2.30;;;1.87;;
18042;SDS011;9146;48.074;11.968;2022-09-02T11:32:00;2.37;;;1.70;;
18042;SDS011;9146;48.074;11.968;2022-09-02T11:34:33;2.40;;;1.67;;
18042;SDS011;9146;48.074;11.968;2022-09-02T11:37:05;3.83;;;1.60;;
18042;SDS011;9146;48.074;11.968;2022-09-02T11:39:34;1.87;;;1.67;;
18042;SDS011;9146;48.074;11.968;2022-09-02T11:42:09;1.80;;;1.70;;
18042;SDS011;9146;48.074;11.968;2022-09-02T11:44:52;2.10;;;1.63;;
18042;SDS011;9146;48.074;11.968;2022-09-02T11:50:53;1.50;;;1.40;;
18042;SDS011;9146;48.074;11.968;2022-09-02T11:53:31;2.23;;;1.90;;
18042;SDS011;9146;48.074;11.968;2022-09-02T11:56:04;1.80;;;1.53;;
18042;SDS011;9146;48.074;11.968;2022-09-02T11:58:36;1.97;;;1.77;;
18042;SDS011;9146;48.074;11.968;2022-09-02T12:03:55;1.53;;;1.37;;
18042;SDS011;9146;48.074;11.968;2022-09-02T12:06:25;6.00;;;1.60;;
18042;SDS011;9146;48.074;11.968;2022-09-02T12:08:58;1.60;;;1.50;;
18042;SDS011;9146;48.074;11.968;2022-09-02T12:11:50;1.53;;;1.43;;
18042;SDS011;9146;48.074;11.968;2022-09-02T12:17:36;1.53;;;1.43;;
18042;SDS011;9146;48.074;11.968;2022-09-02T12:20:05;2.07;;;1.93;;
18042;SDS011;9146;48.074;11.968;2022-09-02T12:22:34;4.53;;;1.80;;
18042;SDS011;9146;48.074;11.968;2022-09-02T12:31:09;4.60;;;1.53;;
18042;SDS011;9146;48.074;11.968;2022-09-02T12:33:40;1.63;;;1.53;;
18042;SDS011;9146;48.074;11.968;2022-09-02T12:36:09;2.47;;;1.60;;
18042;SDS011;9146;48.074;11.968;2022-09-02T12:42:25;2.80;;;1.40;;
18042;SDS011;9146;48.074;11.968;2022-09-02T12:45:08;4.20;;;2.80;;
18042;SDS011;9146;48.074;11.968;2022-09-02T12:47:48;1.80;;;1.70;;
18042;SDS011;9146;48.074;11.968;2022-09-02T12:50:25;2.97;;;1.80;;
18042;SDS011;9146;48.074;11.968;2022-09-02T12:53:06;4.80;;;1.20;;
18042;SDS011;9146;48.074;11.968;2022-09-02T12:55:39;1.87;;;1.60;;
18042;SDS011;9146;48.074;11.968;2022-09-02T12:58:11;1.83;;;1.60;;
18042;SDS011;9146;48.074;11.968;2022-09-02T13:00:44;1.60;;;1.50;;
18042;SDS011;9146;48.074;11.968;2022-09-02T13:03:26;1.40;;;1.30;;
18042;SDS011;9146;48.074;11.968;2022-09-02T13:06:17;2.50;;;2.07;;
18042;SDS011;9146;48.074;11.968;2022-09-02T13:09:05;1.90;;;1.53;;
18042;SDS011;9146;48.074;11.968;2022-09-02T13:15:02;2.50;;;1.27;;
18042;SDS011;9146;48.074;11.968;2022-09-02T13:17:53;1.50;;;1.40;;
18042;SDS011;9146;48.074;11.968;2022-09-02T13:24:05;1.80;;;1.70;;
18042;SDS011;9146;48.074;11.968;2022-09-02T13:27:07;1.87;;;1.40;;
18042;SDS011;9146;48.074;11.968;2022-09-02T13:32:53;1.83;;;1.73;;
18042;SDS011;9146;48.074;11.968;2022-09-02T13:35:23;1.40;;;1.30;;
18042;SDS011;9146;48.074;11.968;2022-09-02T13:37:53;1.50;;;1.40;;
18042;SDS011;9146;48.074;11.968;2022-09-02T13:40:24;1.37;;;1.27;;
18042;SDS011;9146;48.074;11.968;2022-09-02T13:42:54;6.37;;;1.67;;
18042;SDS011;9146;48.074;11.968;2022-09-02T13:45:24;1.40;;;1.30;;
18042;SDS011;9146;48.074;11.968;2022-09-02T13:47:53;2.80;;;1.70;;
18042;SDS011;9146;48.074;11.968;2022-09-02T13:50:21;2.40;;;1.83;;
18042;SDS011;9146;48.074;11.968;2022-09-02T13:52:51;1.47;;;1.37;;
18042;SDS011;9146;48.074;11.968;2022-09-02T13:55:20;2.00;;;1.87;;
18042;SDS011;9146;48.074;11.968;2022-09-02T13:57:51;1.30;;;1.20;;
18042;SDS011;9146;48.074;11.968;2022-09-02T14:00:27;1.53;;;1.40;;
18042;SDS011;9146;48.074;11.968;2022-09-02T14:02:58;1.60;;;1.50;;
18042;SDS011;9146;48.074;11.968;2022-09-02T14:05:27;3.17;;;1.67;;
18042;SDS011;9146;48.074;11.968;2022-09-02T14:07:57;1.30;;;1.20;;
18042;SDS011;9146;48.074;11.968;2022-09-02T14:10:27;2.63;;;1.40;;
18042;SDS011;9146;48.074;11.968;2022-09-02T14:12:55;1.50;;;1.40;;
18042;SDS011;9146;48.074;11.968;2022-09-02T14:15:23;1.50;;;1.37;;
18042;SDS011;9146;48.074;11.968;2022-09-02T14:18:07;1.60;;;1.50;;
18042;SDS011;9146;48.074;11.968;2022-09-02T14:20:54;1.60;;;1.50;;
18042;SDS011;9146;48.074;11.968;2022-09-02T14:23:23;2.20;;;1.43;;
18042;SDS011;9146;48.074;11.968;2022-09-02T14:25:52;1.33;;;1.23;;
18042;SDS011;9146;48.074;11.968;2022-09-02T14:28:20;8.43;;;1.57;;
18042;SDS011;9146;48.074;11.968;2022-09-02T14:30:54;2.53;;;1.60;;
18042;SDS011;9146;48.074;11.968;2022-09-02T14:33:24;2.90;;;1.67;;
18042;SDS011;9146;48.074;11.968;2022-09-02T14:35:54;2.33;;;1.80;;
18042;SDS011;9146;48.074;11.968;2022-09-02T14:38:25;3.10;;;1.43;;
18042;SDS011;9146;48.074;11.968;2022-09-02T14:40:58;1.57;;;1.47;;
18042;SDS011;9146;48.074;11.968;2022-09-02T14:43:26;1.50;;;1.40;;
18042;SDS011;9146;48.074;11.968;2022-09-02T14:46:04;1.83;;;1.20;;
18042;SDS011;9146;48.074;11.968;2022-09-02T14:48:35;1.40;;;1.30;;
18042;SDS011;9146;48.074;11.968;2022-09-02T14:51:04;2.13;;;1.90;;
18042;SDS011;9146;48.074;11.968;2022-09-02T14:53:33;1.70;;;1.37;;
18042;SDS011;9146;48.074;11.968;2022-09-02T14:56:02;2.70;;;1.60;;
18042;SDS011;9146;48.074;11.968;2022-09-02T14:58:30;1.40;;;1.30;;
18042;SDS011;9146;48.074;11.968;2022-09-02T15:00:58;1.50;;;1.40;;
18042;SDS011;9146;48.074;11.968;2022-09-02T15:03:28;2.37;;;1.40;;
18042;SDS011;9146;48.074;11.968;2022-09-02T15:05:56;1.53;;;1.43;;
18042;SDS011;9146;48.074;11.968;2022-09-02T15:08:23;3.97;;;1.70;;
18042;SDS011;9146;48.074;11.968;2022-09-02T15:10:50;1.50;;;1.40;;
18042;SDS011;9146;48.074;11.968;2022-09-02T15:13:24;4.43;;;1.50;;
18042;SDS011;9146;48.074;11.968;2022-09-02T15:15:53;3.87;;;1.63;;
18042;SDS011;9146;48.074;11.968;2022-09-02T15:18:21;1.67;;;1.53;;
18042;SDS011;9146;48.074;11.968;2022-09-02T15:20:50;1.77;;;1.60;;
18042;SDS011;9146;48.074;11.968;2022-09-02T15:23:17;1.53;;;1.40;;
18042;SDS011;9146;48.074;11.968;2022-09-02T15:25:44;1.27;;;1.20;;
18042;SDS011;9146;48.074;11.968;2022-09-02T15:28:10;1.40;;;1.30;;
18042;SDS011;9146;48.074;11.968;2022-09-02T15:30:38;7.47;;;1.57;;
18042;SDS011;9146;48.074;11.968;2022-09-02T15:33:05;1.80;;;1.70;;
18042;SDS011;9146;48.074;11.968;2022-09-02T15:35:33;2.07;;;1.60;;
18042;SDS011;9146;48.074;11.968;2022-09-02T15:38:02;3.30;;;1.67;;